sensor_id;sensor_type;location;lat;lon;timestamp;pressure;altitude;pressure_sealevel;temperature;humidity
66176;BME280;52977;44.816;20.538;2023-04-16T00:02:36;99181.66;;;13.27;64.99
66176;BME280;52977;44.816;20.538;2023-04-16T00:05:02;99131.97;;;12.96;65.24
66176;BME280;52977;44.816;20.538;2023-04-16T00:07:29;99172.28;;;13.28;65.67
66176;BME280;52977;44.816;20.538;2023-04-16T00:09:55;99104.81;;;12.91;65.70
66176;BME280;52977;44.816;20.538;2023-04-16T00:12:22;99133.81;;;12.92;66.84
66176;BME280;52977;44.816;20.538;2023-04-16T00:14:49;99120.38;;;12.87;66.57
66176;BME280;52977;44.816;20.538;2023-04-16T00:17:15;99137.16;;;13.02;66.07
66176;BME280;52977;44.816;20.538;2023-04-16T00:19:41;99147.53;;;13.08;66.32
66176;BME280;52977;44.816;20.538;2023-04-16T00:22:07;99143.72;;;12.97;66.97
66176;BME280;52977;44.816;20.538;2023-04-16T00:24:32;99164.13;;;13.15;66.60
66176;BME280;52977;44.816;20.538;2023-04-16T00:26:58;99140.53;;;12.95;66.50
66176;BME280;52977;44.816;20.538;2023-04-16T00:29:24;99159.63;;;13.07;66.38
66176;BME280;52977;44.816;20.538;2023-04-16T00:31:51;99129.59;;;12.95;66.45
66176;BME280;52977;44.816;20.538;2023-04-16T00:34:17;99132.22;;;12.91;66.55
66176;BME280;52977;44.816;20.538;2023-04-16T00:36:42;99151.41;;;13.07;66.43
66176;BME280;52977;44.816;20.538;2023-04-16T00:39:08;99121.56;;;12.58;67.61
66176;BME280;52977;44.816;20.538;2023-04-16T00:41:34;99156.56;;;12.80;67.48
66176;BME280;52977;44.816;20.538;2023-04-16T00:43:59;99165.63;;;12.97;67.21
66176;BME280;52977;44.816;20.538;2023-04-16T00:46:25;99111.56;;;12.65;67.04
66176;BME280;52977;44.816;20.538;2023-04-16T00:48:52;99120.00;;;12.73;66.72
66176;BME280;52977;44.816;20.538;2023-04-16T00:51:18;99141.31;;;12.95;66.80
66176;BME280;52977;44.816;20.538;2023-04-16T00:53:46;99095.66;;;12.55;67.17
66176;BME280;52977;44.816;20.538;2023-04-16T00:56:12;99076.22;;;12.44;66.98
66176;BME280;52977;44.816;20.538;2023-04-16T00:58:38;99155.38;;;12.94;67.78
66176;BME280;52977;44.816;20.538;2023-04-16T01:01:04;99152.19;;;12.92;67.25
66176;BME280;52977;44.816;20.538;2023-04-16T01:03:43;99162.19;;;13.00;67.94
66176;BME280;52977;44.816;20.538;2023-04-16T01:06:10;99132.63;;;12.77;68.06
66176;BME280;52977;44.816;20.538;2023-04-16T01:08:36;99152.34;;;12.83;68.45
66176;BME280;52977;44.816;20.538;2023-04-16T01:11:02;99152.69;;;12.81;69.16
66176;BME280;52977;44.816;20.538;2023-04-16T01:13:28;99097.09;;;12.49;68.59
66176;BME280;52977;44.816;20.538;2023-04-16T01:15:54;99136.16;;;12.78;68.21
66176;BME280;52977;44.816;20.538;2023-04-16T01:18:20;99138.91;;;12.78;68.16
66176;BME280;52977;44.816;20.538;2023-04-16T01:20:47;99114.66;;;12.64;67.25
66176;BME280;52977;44.816;20.538;2023-04-16T01:23:14;99105.56;;;12.60;67.05
66176;BME280;52977;44.816;20.538;2023-04-16T01:25:39;99159.06;;;12.86;67.01
66176;BME280;52977;44.816;20.538;2023-04-16T01:28:06;99134.13;;;12.75;66.59
66176;BME280;52977;44.816;20.538;2023-04-16T01:30:31;99107.41;;;12.56;66.32
66176;BME280;52977;44.816;20.538;2023-04-16T01:33:09;99091.16;;;12.47;66.14
66176;BME280;52977;44.816;20.538;2023-04-16T01:35:36;99150.75;;;12.82;66.09
66176;BME280;52977;44.816;20.538;2023-04-16T01:38:02;99157.47;;;12.85;65.61
66176;BME280;52977;44.816;20.538;2023-04-16T01:40:30;99132.53;;;12.74;65.29
66176;BME280;52977;44.816;20.538;2023-04-16T01:42:55;99073.94;;;12.46;65.49
66176;BME280;52977;44.816;20.538;2023-04-16T01:45:21;99126.44;;;12.80;65.43
66176;BME280;52977;44.816;20.538;2023-04-16T01:47:48;99133.00;;;12.92;65.44
66176;BME280;52977;44.816;20.538;2023-04-16T01:50:16;99124.25;;;12.86;65.33
66176;BME280;52977;44.816;20.538;2023-04-16T01:52:42;99116.81;;;12.71;65.91
66176;BME280;52977;44.816;20.538;2023-04-16T01:55:08;99132.91;;;11.91;68.98
66176;BME280;52977;44.816;20.538;2023-04-16T01:57:34;99117.91;;;11.72;70.05
66176;BME280;52977;44.816;20.538;2023-04-16T02:00:00;99104.53;;;11.83;69.98
66176;BME280;52977;44.816;20.538;2023-04-16T02:08:47;99072.94;;;12.10;67.00
66176;BME280;52977;44.816;20.538;2023-04-16T02:11:14;99125.97;;;12.62;64.45
66176;BME280;52977;44.816;20.538;2023-04-16T02:13:41;99103.19;;;12.30;61.39
66176;BME280;52977;44.816;20.538;2023-04-16T02:16:07;99122.78;;;12.04;65.61
66176;BME280;52977;44.816;20.538;2023-04-16T02:18:42;99142.97;;;11.99;67.34
66176;BME280;52977;44.816;20.538;2023-04-16T02:21:09;99126.25;;;11.51;69.89
66176;BME280;52977;44.816;20.538;2023-04-16T02:23:35;99143.31;;;11.60;70.11
66176;BME280;52977;44.816;20.538;2023-04-16T02:26:02;99119.63;;;11.52;70.17
66176;BME280;52977;44.816;20.538;2023-04-16T02:28:28;99118.13;;;11.79;69.69
66176;BME280;52977;44.816;20.538;2023-04-16T02:30:55;99097.25;;;11.87;68.45
66176;BME280;52977;44.816;20.538;2023-04-16T02:33:22;99143.59;;;12.21;67.96
66176;BME280;52977;44.816;20.538;2023-04-16T02:36:02;99152.09;;;12.31;67.85
66176;BME280;52977;44.816;20.538;2023-04-16T02:38:28;99141.94;;;12.32;66.27
66176;BME280;52977;44.816;20.538;2023-04-16T02:40:54;99123.31;;;12.09;66.86
66176;BME280;52977;44.816;20.538;2023-04-16T02:43:20;99137.72;;;12.35;66.17
66176;BME280;52977;44.816;20.538;2023-04-16T02:45:46;99134.63;;;12.36;63.72
66176;BME280;52977;44.816;20.538;2023-04-16T02:48:12;99132.38;;;12.38;63.60
66176;BME280;52977;44.816;20.538;2023-04-16T02:50:39;99106.72;;;12.30;63.24
66176;BME280;52977;44.816;20.538;2023-04-16T02:53:05;99106.78;;;12.46;63.54
66176;BME280;52977;44.816;20.538;2023-04-16T02:55:32;99135.81;;;12.35;62.08
66176;BME280;52977;44.816;20.538;2023-04-16T02:57:58;99142.72;;;12.04;63.45
66176;BME280;52977;44.816;20.538;2023-04-16T03:00:24;99141.75;;;12.25;63.77
66176;BME280;52977;44.816;20.538;2023-04-16T03:02:51;99145.00;;;12.43;62.65
66176;BME280;52977;44.816;20.538;2023-04-16T03:05:17;99134.03;;;12.43;62.11
66176;BME280;52977;44.816;20.538;2023-04-16T03:07:43;99108.31;;;12.31;61.25
66176;BME280;52977;44.816;20.538;2023-04-16T03:10:10;99137.53;;;12.56;60.70
66176;BME280;52977;44.816;20.538;2023-04-16T03:12:38;99131.50;;;12.50;60.35
66176;BME280;52977;44.816;20.538;2023-04-16T03:15:05;99138.78;;;12.58;59.11
66176;BME280;52977;44.816;20.538;2023-04-16T03:17:31;99137.88;;;12.54;58.71
66176;BME280;52977;44.816;20.538;2023-04-16T03:19:56;99141.06;;;12.56;58.57
66176;BME280;52977;44.816;20.538;2023-04-16T03:22:22;99140.25;;;12.56;59.26
66176;BME280;52977;44.816;20.538;2023-04-16T03:24:48;99117.66;;;12.30;59.70
66176;BME280;52977;44.816;20.538;2023-04-16T03:27:13;99154.75;;;12.56;59.72
66176;BME280;52977;44.816;20.538;2023-04-16T03:29:39;99162.78;;;12.49;59.71
66176;BME280;52977;44.816;20.538;2023-04-16T03:32:07;99172.91;;;12.08;61.34
66176;BME280;52977;44.816;20.538;2023-04-16T03:34:32;99069.09;;;11.46;61.75
66176;BME280;52977;44.816;20.538;2023-04-16T03:36:58;99167.03;;;12.34;61.38
66176;BME280;52977;44.816;20.538;2023-04-16T03:39:24;99164.97;;;12.43;61.84
66176;BME280;52977;44.816;20.538;2023-04-16T03:41:51;99096.47;;;11.99;61.94
66176;BME280;52977;44.816;20.538;2023-04-16T03:44:16;99149.13;;;12.37;61.40
66176;BME280;52977;44.816;20.538;2023-04-16T03:46:44;99133.41;;;12.34;61.02
66176;BME280;52977;44.816;20.538;2023-04-16T03:49:09;99170.63;;;12.51;61.24
66176;BME280;52977;44.816;20.538;2023-04-16T03:51:35;99146.47;;;12.40;62.13
66176;BME280;52977;44.816;20.538;2023-04-16T03:54:01;99166.97;;;12.59;61.84
66176;BME280;52977;44.816;20.538;2023-04-16T03:56:28;99115.75;;;12.31;61.65
66176;BME280;52977;44.816;20.538;2023-04-16T03:58:55;99151.47;;;12.51;62.01
66176;BME280;52977;44.816;20.538;2023-04-16T04:01:21;99159.69;;;12.51;61.99
66176;BME280;52977;44.816;20.538;2023-04-16T04:03:47;99162.38;;;12.63;61.74
66176;BME280;52977;44.816;20.538;2023-04-16T04:06:14;99163.94;;;12.64;61.65
66176;BME280;52977;44.816;20.538;2023-04-16T04:08:40;99168.66;;;12.63;61.87
66176;BME280;52977;44.816;20.538;2023-04-16T04:11:06;99139.16;;;12.44;62.31
66176;BME280;52977;44.816;20.538;2023-04-16T04:13:33;99146.03;;;12.10;62.62
66176;BME280;52977;44.816;20.538;2023-04-16T04:15:59;99070.13;;;11.29;64.40
66176;BME280;52977;44.816;20.538;2023-04-16T04:18:26;99116.31;;;11.59;65.89
66176;BME280;52977;44.816;20.538;2023-04-16T04:20:52;99204.38;;;11.77;66.81
66176;BME280;52977;44.816;20.538;2023-04-16T04:23:23;99196.63;;;11.79;66.68
66176;BME280;52977;44.816;20.538;2023-04-16T04:25:49;99162.31;;;11.82;66.86
66176;BME280;52977;44.816;20.538;2023-04-16T04:28:15;99164.06;;;11.61;69.51
66176;BME280;52977;44.816;20.538;2023-04-16T04:30:41;99206.53;;;11.71;73.22
66176;BME280;52977;44.816;20.538;2023-04-16T04:33:08;99088.31;;;10.21;80.57
66176;BME280;52977;44.816;20.538;2023-04-16T04:35:36;99179.66;;;10.57;82.54
66176;BME280;52977;44.816;20.538;2023-04-16T04:38:03;99200.78;;;11.15;80.33
66176;BME280;52977;44.816;20.538;2023-04-16T04:40:31;99146.94;;;11.15;78.75
66176;BME280;52977;44.816;20.538;2023-04-16T04:42:57;99045.41;;;10.76;76.80
66176;BME280;52977;44.816;20.538;2023-04-16T04:45:23;99213.03;;;12.04;75.90
66176;BME280;52977;44.816;20.538;2023-04-16T04:47:52;99218.50;;;12.16;75.22
66176;BME280;52977;44.816;20.538;2023-04-16T04:50:18;99213.94;;;12.20;73.49
66176;BME280;52977;44.816;20.538;2023-04-16T04:52:45;99186.94;;;12.06;71.79
66176;BME280;52977;44.816;20.538;2023-04-16T04:55:11;99214.16;;;12.27;70.92
66176;BME280;52977;44.816;20.538;2023-04-16T04:57:39;99188.41;;;12.16;69.33
66176;BME280;52977;44.816;20.538;2023-04-16T05:00:06;99179.63;;;12.10;68.78
66176;BME280;52977;44.816;20.538;2023-04-16T05:02:40;99182.59;;;12.05;68.92
66176;BME280;52977;44.816;20.538;2023-04-16T05:05:07;99213.09;;;12.32;68.96
66176;BME280;52977;44.816;20.538;2023-04-16T05:07:33;99226.13;;;12.35;69.12
66176;BME280;52977;44.816;20.538;2023-04-16T05:09:59;99175.41;;;11.88;70.97
66176;BME280;52977;44.816;20.538;2023-04-16T05:12:26;99204.38;;;11.89;72.24
66176;BME280;52977;44.816;20.538;2023-04-16T05:14:52;99187.41;;;11.84;73.04
66176;BME280;52977;44.816;20.538;2023-04-16T05:17:18;99226.72;;;12.16;72.44
66176;BME280;52977;44.816;20.538;2023-04-16T05:19:44;99202.09;;;12.04;71.68
66176;BME280;52977;44.816;20.538;2023-04-16T05:22:10;99193.25;;;11.94;71.18
66176;BME280;52977;44.816;20.538;2023-04-16T05:24:37;99219.75;;;12.19;71.93
66176;BME280;52977;44.816;20.538;2023-04-16T05:27:03;99172.59;;;11.72;73.34
66176;BME280;52977;44.816;20.538;2023-04-16T05:29:29;99212.47;;;12.10;73.84
66176;BME280;52977;44.816;20.538;2023-04-16T05:31:56;99213.94;;;12.08;73.41
66176;BME280;52977;44.816;20.538;2023-04-16T05:34:22;99200.75;;;11.98;73.59
66176;BME280;52977;44.816;20.538;2023-04-16T05:36:48;99217.59;;;12.00;74.63
66176;BME280;52977;44.816;20.538;2023-04-16T05:39:15;99197.53;;;11.83;74.72
66176;BME280;52977;44.816;20.538;2023-04-16T05:41:42;99213.38;;;11.77;77.67
66176;BME280;52977;44.816;20.538;2023-04-16T05:44:08;99209.53;;;12.03;76.90
66176;BME280;52977;44.816;20.538;2023-04-16T05:46:34;99214.06;;;12.24;75.11
66176;BME280;52977;44.816;20.538;2023-04-16T05:49:00;99225.78;;;12.37;74.00
66176;BME280;52977;44.816;20.538;2023-04-16T05:51:27;99218.66;;;12.48;73.00
66176;BME280;52977;44.816;20.538;2023-04-16T05:53:52;99221.25;;;12.57;72.78
66176;BME280;52977;44.816;20.538;2023-04-16T05:56:18;99220.66;;;12.63;73.11
66176;BME280;52977;44.816;20.538;2023-04-16T05:58:44;99197.03;;;12.30;72.13
66176;BME280;52977;44.816;20.538;2023-04-16T06:01:09;99202.41;;;12.27;74.61
66176;BME280;52977;44.816;20.538;2023-04-16T06:03:36;99233.63;;;12.38;75.26
66176;BME280;52977;44.816;20.538;2023-04-16T06:06:02;99210.72;;;12.30;75.37
66176;BME280;52977;44.816;20.538;2023-04-16T06:08:28;99211.34;;;12.11;75.76
66176;BME280;52977;44.816;20.538;2023-04-16T06:10:54;99225.47;;;12.13;81.97
66176;BME280;52977;44.816;20.538;2023-04-16T06:13:20;99186.38;;;11.76;83.87
66176;BME280;52977;44.816;20.538;2023-04-16T06:15:46;99228.31;;;12.05;84.86
66176;BME280;52977;44.816;20.538;2023-04-16T06:18:12;99219.91;;;11.98;85.28
66176;BME280;52977;44.816;20.538;2023-04-16T06:20:39;99235.59;;;11.76;89.09
66176;BME280;52977;44.816;20.538;2023-04-16T06:23:05;99236.47;;;11.55;91.03
66176;BME280;52977;44.816;20.538;2023-04-16T06:25:32;99234.22;;;11.57;91.75
66176;BME280;52977;44.816;20.538;2023-04-16T06:27:58;99239.31;;;11.46;92.39
66176;BME280;52977;44.816;20.538;2023-04-16T06:30:24;99242.59;;;11.40;92.83
66176;BME280;52977;44.816;20.538;2023-04-16T06:32:50;99214.00;;;11.25;91.56
66176;BME280;52977;44.816;20.538;2023-04-16T06:35:16;99183.00;;;11.08;92.92
66176;BME280;52977;44.816;20.538;2023-04-16T06:37:45;99245.25;;;11.49;92.70
66176;BME280;52977;44.816;20.538;2023-04-16T06:40:11;99197.97;;;11.23;91.63
66176;BME280;52977;44.816;20.538;2023-04-16T06:42:38;99246.25;;;11.44;92.18
66176;BME280;52977;44.816;20.538;2023-04-16T06:45:04;99222.25;;;11.37;90.90
66176;BME280;52977;44.816;20.538;2023-04-16T06:47:31;99205.69;;;11.21;91.22
66176;BME280;52977;44.816;20.538;2023-04-16T06:49:57;99236.00;;;11.41;89.99
66176;BME280;52977;44.816;20.538;2023-04-16T06:52:22;99196.78;;;11.12;90.10
66176;BME280;52977;44.816;20.538;2023-04-16T06:54:48;99212.66;;;11.31;90.00
66176;BME280;52977;44.816;20.538;2023-04-16T06:57:13;99256.53;;;11.59;90.44
66176;BME280;52977;44.816;20.538;2023-04-16T06:59:40;99187.81;;;11.24;89.31
66176;BME280;52977;44.816;20.538;2023-04-16T07:02:08;99223.63;;;11.68;87.14
66176;BME280;52977;44.816;20.538;2023-04-16T07:04:34;99239.09;;;11.89;85.23
66176;BME280;52977;44.816;20.538;2023-04-16T07:07:00;99264.22;;;12.03;85.00
66176;BME280;52977;44.816;20.538;2023-04-16T07:09:25;99191.25;;;11.70;83.64
66176;BME280;52977;44.816;20.538;2023-04-16T07:11:52;99194.78;;;11.83;83.37
66176;BME280;52977;44.816;20.538;2023-04-16T07:14:18;99260.31;;;12.17;84.05
66176;BME280;52977;44.816;20.538;2023-04-16T07:16:44;99249.75;;;12.03;84.96
66176;BME280;52977;44.816;20.538;2023-04-16T07:19:10;99251.13;;;11.96;84.70
66176;BME280;52977;44.816;20.538;2023-04-16T07:21:36;99234.44;;;11.77;86.80
66176;BME280;52977;44.816;20.538;2023-04-16T07:24:02;99239.50;;;12.00;87.80
66176;BME280;52977;44.816;20.538;2023-04-16T07:26:28;99266.72;;;12.21;87.45
66176;BME280;52977;44.816;20.538;2023-04-16T07:28:53;99194.03;;;11.95;86.55
66176;BME280;52977;44.816;20.538;2023-04-16T07:31:19;99263.72;;;12.51;86.38
66176;BME280;52977;44.816;20.538;2023-04-16T07:33:45;99221.22;;;12.28;85.91
66176;BME280;52977;44.816;20.538;2023-04-16T07:36:10;99267.72;;;12.53;84.49
66176;BME280;52977;44.816;20.538;2023-04-16T07:38:36;99253.94;;;12.37;84.00
66176;BME280;52977;44.816;20.538;2023-04-16T07:41:02;99266.44;;;12.63;82.81
66176;BME280;52977;44.816;20.538;2023-04-16T07:43:27;99265.72;;;12.66;78.47
66176;BME280;52977;44.816;20.538;2023-04-16T07:45:53;99241.09;;;12.66;80.50
66176;BME280;52977;44.816;20.538;2023-04-16T07:48:19;99266.88;;;12.93;79.39
66176;BME280;52977;44.816;20.538;2023-04-16T07:50:44;99266.22;;;12.96;78.41
66176;BME280;52977;44.816;20.538;2023-04-16T07:53:10;99263.19;;;13.02;78.27
66176;BME280;52977;44.816;20.538;2023-04-16T07:55:36;99262.53;;;13.05;79.05
66176;BME280;52977;44.816;20.538;2023-04-16T07:58:02;99265.19;;;13.17;79.10
66176;BME280;52977;44.816;20.538;2023-04-16T08:00:28;99256.81;;;13.26;78.45
66176;BME280;52977;44.816;20.538;2023-04-16T08:02:55;99216.13;;;13.12;77.39
66176;BME280;52977;44.816;20.538;2023-04-16T08:05:20;99258.34;;;13.39;78.02
66176;BME280;52977;44.816;20.538;2023-04-16T08:07:46;99266.09;;;13.49;75.50
66176;BME280;52977;44.816;20.538;2023-04-16T08:10:11;99256.88;;;13.58;73.81
66176;BME280;52977;44.816;20.538;2023-04-16T08:12:40;99216.72;;;13.49;68.36
66176;BME280;52977;44.816;20.538;2023-04-16T08:15:07;99215.47;;;13.47;66.42
66176;BME280;52977;44.816;20.538;2023-04-16T08:17:33;99213.28;;;13.53;66.77
66176;BME280;52977;44.816;20.538;2023-04-16T08:20:03;99254.56;;;13.92;67.69
66176;BME280;52977;44.816;20.538;2023-04-16T08:22:29;99256.53;;;13.91;67.92
66176;BME280;52977;44.816;20.538;2023-04-16T08:24:54;99264.56;;;14.00;67.11
66176;BME280;52977;44.816;20.538;2023-04-16T08:27:20;99256.41;;;14.04;67.40
66176;BME280;52977;44.816;20.538;2023-04-16T08:29:48;99181.41;;;13.64;66.73
66176;BME280;52977;44.816;20.538;2023-04-16T08:32:14;99248.00;;;14.12;66.42
66176;BME280;52977;44.816;20.538;2023-04-16T08:34:41;99258.16;;;14.28;66.89
66176;BME280;52977;44.816;20.538;2023-04-16T08:37:07;99258.66;;;14.33;66.44
66176;BME280;52977;44.816;20.538;2023-04-16T08:39:34;99258.69;;;14.53;66.05
66176;BME280;52977;44.816;20.538;2023-04-16T08:42:03;99249.31;;;14.54;65.87
66176;BME280;52977;44.816;20.538;2023-04-16T08:44:33;99245.56;;;14.62;65.60
66176;BME280;52977;44.816;20.538;2023-04-16T08:46:59;99266.13;;;14.68;65.47
66176;BME280;52977;44.816;20.538;2023-04-16T08:49:27;99238.38;;;14.58;65.71
66176;BME280;52977;44.816;20.538;2023-04-16T08:51:54;99260.72;;;14.72;66.05
66176;BME280;52977;44.816;20.538;2023-04-16T08:56:58;99208.63;;;14.60;63.67
66176;BME280;52977;44.816;20.538;2023-04-16T08:59:25;99242.91;;;14.85;64.17
66176;BME280;52977;44.816;20.538;2023-04-16T09:01:56;99250.06;;;14.90;63.54
66176;BME280;52977;44.816;20.538;2023-04-16T09:04:26;99238.56;;;14.84;63.11
66176;BME280;52977;44.816;20.538;2023-04-16T09:06:56;99180.16;;;14.48;63.76
66176;BME280;52977;44.816;20.538;2023-04-16T09:09:25;99238.41;;;14.97;63.57
66176;BME280;52977;44.816;20.538;2023-04-16T09:11:52;99250.84;;;15.10;62.53
66176;BME280;52977;44.816;20.538;2023-04-16T09:14:19;99218.88;;;15.02;62.13
66176;BME280;52977;44.816;20.538;2023-04-16T09:16:47;99239.84;;;15.10;62.72
66176;BME280;52977;44.816;20.538;2023-04-16T09:19:14;99258.63;;;15.28;62.31
66176;BME280;52977;44.816;20.538;2023-04-16T09:21:41;99212.91;;;15.19;63.03
66176;BME280;52977;44.816;20.538;2023-04-16T09:24:08;99244.72;;;15.40;61.88
66176;BME280;52977;44.816;20.538;2023-04-16T09:26:35;99228.16;;;15.36;60.70
66176;BME280;52977;44.816;20.538;2023-04-16T09:29:01;99250.41;;;15.51;60.20
66176;BME280;52977;44.816;20.538;2023-04-16T09:31:27;99224.38;;;15.45;59.40
66176;BME280;52977;44.816;20.538;2023-04-16T09:36:30;99223.81;;;15.59;60.05
66176;BME280;52977;44.816;20.538;2023-04-16T09:38:58;99240.97;;;15.75;59.17
66176;BME280;52977;44.816;20.538;2023-04-16T09:41:26;99245.31;;;15.76;59.84
66176;BME280;52977;44.816;20.538;2023-04-16T09:43:59;99235.84;;;15.73;57.38
66176;BME280;52977;44.816;20.538;2023-04-16T09:46:40;99242.16;;;15.74;58.05
66176;BME280;52977;44.816;20.538;2023-04-16T09:49:14;99213.31;;;15.64;58.05
66176;BME280;52977;44.816;20.538;2023-04-16T09:51:47;99226.31;;;15.91;58.77
66176;BME280;52977;44.816;20.538;2023-04-16T09:54:14;99232.78;;;16.02;58.09
66176;BME280;52977;44.816;20.538;2023-04-16T09:56:44;99218.28;;;16.05;58.01
66176;BME280;52977;44.816;20.538;2023-04-16T09:59:23;99227.78;;;16.11;57.44
66176;BME280;52977;44.816;20.538;2023-04-16T10:01:49;99216.47;;;16.16;58.25
66176;BME280;52977;44.816;20.538;2023-04-16T10:04:18;99227.22;;;16.25;57.54
66176;BME280;52977;44.816;20.538;2023-04-16T10:07:01;99182.88;;;16.03;57.32
66176;BME280;52977;44.816;20.538;2023-04-16T10:09:36;99228.84;;;16.30;57.32
66176;BME280;52977;44.816;20.538;2023-04-16T10:12:04;99217.03;;;16.29;57.73
66176;BME280;52977;44.816;20.538;2023-04-16T10:14:30;99205.72;;;16.34;57.69
66176;BME280;52977;44.816;20.538;2023-04-16T10:16:56;99176.78;;;16.17;57.88
66176;BME280;52977;44.816;20.538;2023-04-16T10:19:26;99215.44;;;16.55;57.66
66176;BME280;52977;44.816;20.538;2023-04-16T10:21:53;99199.13;;;16.43;57.11
66176;BME280;52977;44.816;20.538;2023-04-16T10:24:21;99213.00;;;16.50;57.07
66176;BME280;52977;44.816;20.538;2023-04-16T10:26:48;99179.19;;;16.22;56.72
66176;BME280;52977;44.816;20.538;2023-04-16T10:29:17;99198.72;;;16.14;56.94
66176;BME280;52977;44.816;20.538;2023-04-16T10:31:45;99181.47;;;16.17;57.03
66176;BME280;52977;44.816;20.538;2023-04-16T10:34:13;99173.28;;;16.24;56.75
66176;BME280;52977;44.816;20.538;2023-04-16T10:36:39;99158.81;;;16.31;57.55
66176;BME280;52977;44.816;20.538;2023-04-16T10:39:10;99165.72;;;16.48;57.43
66176;BME280;52977;44.816;20.538;2023-04-16T10:41:37;99199.66;;;16.86;57.32
66176;BME280;52977;44.816;20.538;2023-04-16T10:44:08;99169.59;;;16.73;55.13
66176;BME280;52977;44.816;20.538;2023-04-16T10:46:42;99137.47;;;16.54;55.57
66176;BME280;52977;44.816;20.538;2023-04-16T10:49:19;99201.13;;;16.80;54.94
66176;BME280;52977;44.816;20.538;2023-04-16T10:51:58;99195.16;;;16.74;55.18
66176;BME280;52977;44.816;20.538;2023-04-16T10:54:29;99189.91;;;16.62;55.34
66176;BME280;52977;44.816;20.538;2023-04-16T10:57:07;99176.75;;;16.48;55.88
66176;BME280;52977;44.816;20.538;2023-04-16T10:59:35;99196.22;;;16.62;55.95
66176;BME280;52977;44.816;20.538;2023-04-16T11:02:07;99189.81;;;16.54;54.22
66176;BME280;52977;44.816;20.538;2023-04-16T11:04:36;99063.31;;;15.74;55.77
66176;BME280;52977;44.816;20.538;2023-04-16T11:07:06;99189.19;;;16.68;56.81
66176;BME280;52977;44.816;20.538;2023-04-16T11:10:07;99186.97;;;16.81;56.57
66176;BME280;52977;44.816;20.538;2023-04-16T11:12:39;99176.09;;;16.88;54.94
66176;BME280;52977;44.816;20.538;2023-04-16T11:15:08;99178.16;;;16.99;54.54
66176;BME280;52977;44.816;20.538;2023-04-16T11:20:08;99170.78;;;17.10;54.61
66176;BME280;52977;44.816;20.538;2023-04-16T11:22:35;99147.88;;;17.02;53.61
66176;BME280;52977;44.816;20.538;2023-04-16T11:25:02;99109.94;;;16.92;54.32
66176;BME280;52977;44.816;20.538;2023-04-16T11:27:31;99118.81;;;17.16;53.25
66176;BME280;52977;44.816;20.538;2023-04-16T11:30:05;99163.78;;;17.68;52.44
66176;BME280;52977;44.816;20.538;2023-04-16T11:32:35;99161.09;;;17.83;52.55
66176;BME280;52977;44.816;20.538;2023-04-16T11:35:15;99134.41;;;17.42;52.75
66176;BME280;52977;44.816;20.538;2023-04-16T11:37:43;99166.06;;;17.59;51.43
66176;BME280;52977;44.816;20.538;2023-04-16T11:40:09;99153.34;;;17.43;52.79
66176;BME280;52977;44.816;20.538;2023-04-16T11:42:36;99136.25;;;17.27;53.33
66176;BME280;52977;44.816;20.538;2023-04-16T11:45:04;99164.41;;;17.02;53.20
66176;BME280;52977;44.816;20.538;2023-04-16T11:47:30;99152.88;;;16.93;52.73
66176;BME280;52977;44.816;20.538;2023-04-16T11:49:57;99156.81;;;16.92;53.10
66176;BME280;52977;44.816;20.538;2023-04-16T11:52:28;99134.97;;;16.76;53.40
66176;BME280;52977;44.816;20.538;2023-04-16T11:54:55;99143.31;;;16.83;53.78
66176;BME280;52977;44.816;20.538;2023-04-16T11:57:27;99143.22;;;16.76;54.02
66176;BME280;52977;44.816;20.538;2023-04-16T11:59:55;99141.44;;;16.91;53.04
66176;BME280;52977;44.816;20.538;2023-04-16T12:05:05;99098.19;;;17.47;50.47
66176;BME280;52977;44.816;20.538;2023-04-16T12:07:42;99132.88;;;18.11;51.68
66176;BME280;52977;44.816;20.538;2023-04-16T12:10:09;99114.31;;;18.01;51.71
66176;BME280;52977;44.816;20.538;2023-04-16T12:12:37;99104.47;;;18.07;51.31
66176;BME280;52977;44.816;20.538;2023-04-16T12:15:04;99118.03;;;18.41;49.20
66176;BME280;52977;44.816;20.538;2023-04-16T12:17:32;99102.25;;;18.45;47.90
66176;BME280;52977;44.816;20.538;2023-04-16T12:20:00;99120.03;;;18.48;46.93
66176;BME280;52977;44.816;20.538;2023-04-16T12:22:31;99117.56;;;18.24;48.11
66176;BME280;52977;44.816;20.538;2023-04-16T12:25:04;99113.47;;;17.93;49.45
66176;BME280;52977;44.816;20.538;2023-04-16T12:30:14;99105.22;;;17.41;50.42
66176;BME280;52977;44.816;20.538;2023-04-16T12:32:42;99115.81;;;17.32;50.61
66176;BME280;52977;44.816;20.538;2023-04-16T12:35:10;99115.00;;;17.31;49.83
66176;BME280;52977;44.816;20.538;2023-04-16T12:37:37;99077.63;;;17.41;49.42
66176;BME280;52977;44.816;20.538;2023-04-16T12:40:04;99105.13;;;17.86;49.05
66176;BME280;52977;44.816;20.538;2023-04-16T12:42:30;99095.63;;;17.83;49.17
66176;BME280;52977;44.816;20.538;2023-04-16T12:45:02;99077.75;;;17.59;50.76
66176;BME280;52977;44.816;20.538;2023-04-16T12:47:29;99062.59;;;17.31;52.07
66176;BME280;52977;44.816;20.538;2023-04-16T12:49:56;99058.06;;;17.05;52.40
66176;BME280;52977;44.816;20.538;2023-04-16T12:52:41;99088.16;;;17.21;53.24
66176;BME280;52977;44.816;20.538;2023-04-16T12:55:08;99083.41;;;17.18;53.21
66176;BME280;52977;44.816;20.538;2023-04-16T12:57:34;98982.81;;;16.56;53.30
66176;BME280;52977;44.816;20.538;2023-04-16T13:00:01;99085.09;;;17.33;52.08
66176;BME280;52977;44.816;20.538;2023-04-16T13:02:26;99080.84;;;17.47;51.81
66176;BME280;52977;44.816;20.538;2023-04-16T13:04:53;99049.81;;;17.68;50.71
66176;BME280;52977;44.816;20.538;2023-04-16T13:07:19;99065.69;;;17.85;52.34
66176;BME280;52977;44.816;20.538;2023-04-16T13:09:46;99013.06;;;17.46;53.12
66176;BME280;52977;44.816;20.538;2023-04-16T13:12:12;99075.50;;;17.75;53.30